Time;durP1;ratioP1;P1;durP2;ratioP2;P2;SDS_P1;SDS_P2;PMS_P1;PMS_P2;Temp;Humidity;BMP_temperature;BMP_pressure;BME280_temperature;BME280_humidity;BME280_pressure;Samples;Min_cycle;Max_cycle;Signal;HPM_P1;HPM_P2
2021/12/20 00:01:24;;;;;;;0.50;0.10;;;8.30;1.00;;;;;;5012308;28;20443;-68
2021/12/20 00:03:52;;;;;;;0.50;0.10;;;8.20;1.00;;;;;;5011937;28;20440;-69
2021/12/20 00:06:20;;;;;;;0.50;0.10;;;8.20;1.00;;;;;;5011521;28;20451;-69
2021/12/20 00:08:48;;;;;;;0.50;0.10;;;8.20;1.00;;;;;;5012144;28;20973;-69
2021/12/20 00:11:16;;;;;;;0.50;0.10;;;8.20;1.00;;;;;;5012331;28;20487;-68
2021/12/20 00:13:44;;;;;;;0.50;0.10;;;8.20;1.00;;;;;;5012336;28;20879;-68
2021/12/20 00:16:13;;;;;;;0.50;0.10;;;8.20;1.00;;;;;;5011633;28;20826;-69
2021/12/20 00:18:42;;;;;;;0.50;0.10;;;8.20;1.00;;;;;;5014971;28;20454;-68
2021/12/20 00:21:10;;;;;;;0.50;0.10;;;8.20;1.00;;;;;;5015791;28;20447;-69
2021/12/20 00:23:38;;;;;;;0.50;0.10;;;8.20;1.00;;;;;;5015411;28;20444;-70
2021/12/20 00:26:06;;;;;;;0.50;0.10;;;8.20;1.00;;;;;;5015255;28;20479;-69
2021/12/20 00:28:34;;;;;;;0.50;0.10;;;8.30;1.00;;;;;;5015395;28;20453;-69
2021/12/20 00:31:02;;;;;;;0.50;0.10;;;8.30;1.00;;;;;;5015286;28;20453;-69
2021/12/20 00:33:33;;;;;;;0.50;0.20;;;8.30;1.00;;;;;;5014954;28;20487;-69
2021/12/20 00:36:02;;;;;;;0.50;0.10;;;8.30;1.00;;;;;;5014980;28;20456;-69
2021/12/20 00:41:15;;;;;;;0.50;0.20;;;8.30;1.00;;;;;;5034660;28;20934;-68
2021/12/20 00:43:42;;;;;;;0.50;0.10;;;8.30;1.00;;;;;;5033783;28;20941;-68
2021/12/20 00:46:10;;;;;;;0.50;0.10;;;8.30;1.00;;;;;;5034704;28;20447;-68
2021/12/20 00:48:40;;;;;;;0.50;0.10;;;8.30;1.00;;;;;;5035064;28;20462;-68
2021/12/20 00:51:08;;;;;;;0.50;0.10;;;8.30;1.00;;;;;;5035054;28;20450;-69
2021/12/20 00:53:35;;;;;;;0.50;0.10;;;8.30;1.00;;;;;;5035045;28;20514;-69
2021/12/20 00:56:04;;;;;;;0.50;0.10;;;8.30;1.00;;;;;;5036504;28;20475;-67
2021/12/20 00:58:31;;;;;;;0.50;0.10;;;8.30;1.00;;;;;;5037539;28;20443;-69
2021/12/20 01:00:59;;;;;;;0.50;0.10;;;8.20;1.00;;;;;;5035312;28;20441;-69
2021/12/20 01:03:30;;;;;;;0.50;0.10;;;8.20;1.00;;;;;;5035277;28;20930;-68
2021/12/20 01:06:00;;;;;;;0.50;0.10;;;8.20;1.00;;;;;;5043064;28;20498;-69
2021/12/20 01:08:31;;;;;;;0.50;0.10;;;8.30;1.00;;;;;;5034993;28;20451;-68
2021/12/20 01:11:00;;;;;;;0.50;0.10;;;8.30;1.00;;;;;;5034334;28;20996;-69
2021/12/20 01:13:30;;;;;;;0.50;0.10;;;8.30;1.00;;;;;;5034568;28;20489;-69
2021/12/20 01:16:02;;;;;;;0.60;0.50;;;8.30;1.00;;;;;;5034050;28;20461;-69
2021/12/20 01:18:29;;;;;;;0.60;0.30;;;8.20;1.00;;;;;;5034173;28;20938;-69
2021/12/20 01:20:59;;;;;;;0.50;0.20;;;8.20;1.00;;;;;;5034047;28;20454;-69
2021/12/20 01:23:27;;;;;;;0.50;0.10;;;8.10;1.00;;;;;;5033946;28;20449;-69
2021/12/20 01:25:55;;;;;;;0.50;0.10;;;8.10;1.00;;;;;;5033478;28;20498;-69
2021/12/20 01:28:23;;;;;;;0.50;0.10;;;8.10;1.00;;;;;;5033955;28;20465;-69
2021/12/20 01:30:51;;;;;;;0.50;0.10;;;8.00;1.00;;;;;;5034035;28;20455;-68
2021/12/20 01:33:19;;;;;;;0.50;0.10;;;8.00;1.00;;;;;;5033819;28;20494;-67
2021/12/20 01:35:47;;;;;;;0.50;0.10;;;8.00;1.00;;;;;;5033418;28;20473;-68
2021/12/20 01:38:16;;;;;;;0.50;0.10;;;8.10;1.00;;;;;;5033761;28;20450;-69
2021/12/20 01:40:44;;;;;;;0.50;0.10;;;8.10;1.00;;;;;;5034248;28;20463;-68
2021/12/20 01:43:13;;;;;;;0.50;0.10;;;8.20;1.00;;;;;;5034214;28;20451;-68
2021/12/20 01:45:40;;;;;;;0.50;0.10;;;8.20;1.00;;;;;;5033437;28;20467;-67
2021/12/20 01:48:11;;;;;;;2.73;2.53;;;8.20;1.00;;;;;;5033664;28;20450;-68
2021/12/20 01:51:01;;;;;;;0.50;0.10;;;8.20;1.00;;;;;;5033752;28;20456;-69
2021/12/20 01:53:31;;;;;;;0.50;0.10;;;8.20;1.00;;;;;;5033442;28;21022;-68
2021/12/20 01:55:59;;;;;;;0.50;0.10;;;8.20;1.00;;;;;;5033216;28;20474;-69
2021/12/20 01:58:29;;;;;;;0.50;0.10;;;8.30;1.00;;;;;;5033442;28;20945;-67
2021/12/20 02:01:19;;;;;;;0.50;0.10;;;8.30;1.00;;;;;;5033649;28;20426;-68
2021/12/20 02:03:55;;;;;;;0.50;0.10;;;8.30;1.00;;;;;;5033357;28;20441;-69
2021/12/20 02:06:28;;;;;;;0.50;0.20;;;8.30;1.00;;;;;;5033060;28;20447;-69
2021/12/20 02:08:58;;;;;;;0.50;0.10;;;8.30;1.00;;;;;;5033106;28;20541;-69
2021/12/20 02:11:27;;;;;;;0.50;0.10;;;8.30;1.00;;;;;;5033656;28;20439;-67
2021/12/20 02:13:55;;;;;;;0.50;0.10;;;8.30;1.00;;;;;;5033288;28;20489;-67
2021/12/20 02:16:23;;;;;;;0.50;0.10;;;8.30;1.00;;;;;;5033074;28;20518;-67
2021/12/20 02:18:51;;;;;;;0.50;0.10;;;8.30;1.00;;;;;;5033131;28;20849;-67
2021/12/20 02:21:22;;;;;;;0.50;0.10;;;;;;;;;;5033135;28;20454;-68
2021/12/20 02:23:50;;;;;;;0.50;0.10;;;8.30;1.00;;;;;;5032592;28;20850;-67
2021/12/20 02:26:19;;;;;;;0.50;0.10;;;8.30;1.00;;;;;;5033060;28;20444;-69
2021/12/20 02:28:50;;;;;;;0.50;0.10;;;8.30;1.00;;;;;;5033076;28;20444;-68
2021/12/20 02:37:19;;;;;;;0.50;0.20;;;8.30;1.00;;;;;;5032790;28;20439;-67
2021/12/20 02:39:47;;;;;;;0.50;0.10;;;8.30;1.00;;;;;;5031116;28;20523;-69
2021/12/20 02:42:20;;;;;;;0.50;0.10;;;8.20;1.00;;;;;;5012012;28;20954;-69
2021/12/20 02:44:53;;;;;;;0.50;0.10;;;8.20;1.00;;;;;;5011188;28;20467;-69
2021/12/20 02:47:28;;;;;;;0.50;0.10;;;8.20;1.00;;;;;;5013085;28;20440;-70
2021/12/20 02:49:57;;;;;;;0.50;0.10;;;8.20;1.00;;;;;;5013130;28;20438;-67
2021/12/20 02:52:26;;;;;;;0.60;0.30;;;8.20;1.00;;;;;;5012844;28;20450;-69
2021/12/20 02:54:54;;;;;;;0.50;0.10;;;8.30;1.00;;;;;;5012802;28;20810;-69
2021/12/20 02:57:22;;;;;;;0.50;0.10;;;8.30;1.00;;;;;;5019096;28;20447;-69
2021/12/20 02:59:50;;;;;;;0.50;0.10;;;8.30;1.00;;;;;;5014903;28;20448;-68
2021/12/20 03:02:19;;;;;;;0.50;0.30;;;8.30;1.00;;;;;;5013010;28;20498;-67
2021/12/20 03:04:47;;;;;;;1.23;1.13;;;8.20;1.00;;;;;;5012343;28;20479;-68
2021/12/20 03:07:21;;;;;;;0.50;0.10;;;8.20;1.00;;;;;;5012600;28;20443;-68
2021/12/20 03:09:56;;;;;;;0.50;0.10;;;8.20;1.00;;;;;;5012764;28;20537;-67
2021/12/20 03:12:27;;;;;;;0.50;0.10;;;8.30;1.00;;;;;;5012775;28;20439;-67
2021/12/20 03:15:02;;;;;;;0.50;0.10;;;8.30;1.00;;;;;;5025863;28;20483;-66
2021/12/20 03:17:30;;;;;;;0.50;0.10;;;8.20;1.00;;;;;;5032339;28;20442;-68
2021/12/20 03:19:58;;;;;;;0.50;0.10;;;8.20;1.00;;;;;;5033593;28;20962;-69
2021/12/20 03:22:25;;;;;;;0.50;0.10;;;8.30;1.00;;;;;;5035101;28;20454;-69
2021/12/20 03:24:55;;;;;;;0.50;0.10;;;8.30;1.00;;;;;;5032577;28;20481;-69
2021/12/20 03:27:23;;;;;;;0.50;0.10;;;8.20;1.00;;;;;;5032586;28;20443;-68
2021/12/20 03:29:50;;;;;;;0.50;0.10;;;8.20;1.00;;;;;;5033617;28;20451;-69
2021/12/20 03:32:18;;;;;;;0.50;0.10;;;8.20;1.00;;;;;;5033662;28;20442;-68
2021/12/20 03:34:46;;;;;;;0.50;0.20;;;8.20;1.00;;;;;;5032796;28;20494;-70
2021/12/20 03:37:14;;;;;;;0.50;0.10;;;8.20;1.00;;;;;;5033180;28;20473;-68
2021/12/20 03:39:42;;;;;;;0.50;0.10;;;8.20;1.00;;;;;;5032383;28;20450;-68
2021/12/20 03:42:11;;;;;;;0.50;0.10;;;8.10;1.00;;;;;;5031996;28;20848;-67
2021/12/20 03:44:44;;;;;;;0.50;0.20;;;8.10;1.00;;;;;;5032546;28;20840;-68
2021/12/20 03:47:12;;;;;;;0.50;0.10;;;8.00;1.00;;;;;;5034564;28;20442;-68
2021/12/20 03:49:40;;;;;;;0.50;0.10;;;8.00;1.00;;;;;;5034848;28;20444;-68
2021/12/20 03:52:09;;;;;;;0.50;0.10;;;7.90;1.00;;;;;;5036184;28;20446;-68
2021/12/20 03:54:37;;;;;;;0.50;0.10;;;7.90;1.00;;;;;;5037441;28;20495;-68
2021/12/20 03:57:06;;;;;;;0.50;0.10;;;7.90;1.00;;;;;;5036134;28;20806;-68
2021/12/20 03:59:35;;;;;;;0.50;0.10;;;7.90;1.00;;;;;;5036271;28;20451;-68
2021/12/20 04:02:05;;;;;;;0.50;0.10;;;7.90;1.00;;;;;;5036852;28;20546;-68
2021/12/20 04:04:33;;;;;;;0.50;0.20;;;7.90;1.00;;;;;;5036144;28;20501;-67
2021/12/20 04:07:01;;;;;;;0.50;0.10;;;7.90;1.00;;;;;;5036903;28;20465;-68
2021/12/20 04:09:29;;;;;;;0.50;0.10;;;7.90;1.00;;;;;;5038307;28;20452;-68
2021/12/20 04:11:57;;;;;;;0.50;0.10;;;7.90;1.00;;;;;;5037931;28;20444;-68
2021/12/20 04:14:24;;;;;;;0.50;0.10;;;7.90;1.00;;;;;;5037473;28;20492;-67
2021/12/20 04:16:54;;;;;;;0.50;0.20;;;7.80;1.00;;;;;;5035922;28;20963;-68
2021/12/20 04:19:21;;;;;;;0.50;0.20;;;7.80;1.00;;;;;;5038093;28;20447;-68
2021/12/20 04:21:49;;;;;;;0.50;0.20;;;7.70;1.00;;;;;;5038399;28;20438;-68
2021/12/20 04:24:17;;;;;;;0.50;0.10;;;7.70;1.00;;;;;;5038229;28;20552;-67
2021/12/20 04:26:45;;;;;;;0.50;0.10;;;7.70;1.00;;;;;;5048046;22;20569;-70
2021/12/20 04:29:13;;;;;;;0.50;0.10;;;7.70;1.00;;;;;;5034113;28;20453;-70
2021/12/20 04:31:41;;;;;;;0.50;0.10;;;7.70;1.00;;;;;;5035262;28;20453;-70
2021/12/20 04:34:10;;;;;;;0.50;0.10;;;7.70;1.00;;;;;;5034732;28;20486;-70
2021/12/20 04:36:38;;;;;;;0.60;0.40;;;7.60;1.00;;;;;;5034969;28;20461;-70
2021/12/20 04:39:08;;;;;;;0.50;0.10;;;7.60;1.00;;;;;;5034685;28;20443;-70
2021/12/20 04:41:35;;;;;;;0.50;0.10;;;7.50;1.00;;;;;;5035361;28;20449;-71
2021/12/20 04:44:04;;;;;;;0.50;0.10;;;7.40;1.00;;;;;;5035635;28;20447;-68
2021/12/20 04:46:32;;;;;;;1.40;1.30;;;7.40;1.00;;;;;;5035281;28;20467;-70
2021/12/20 04:49:00;;;;;;;1.57;1.47;;;7.40;1.00;;;;;;5034755;28;20445;-69
2021/12/20 04:51:30;;;;;;;1.53;0.87;;;7.30;1.00;;;;;;5034398;28;20446;-69
2021/12/20 04:53:58;;;;;;;0.50;0.10;;;7.30;1.00;;;;;;5035745;28;20503;-70
2021/12/20 04:56:25;;;;;;;0.50;0.10;;;7.30;1.00;;;;;;5036503;28;20469;-69
2021/12/20 04:58:53;;;;;;;0.50;0.10;;;7.30;1.00;;;;;;5036045;28;20437;-69
2021/12/20 05:01:21;;;;;;;0.50;0.10;;;7.30;1.00;;;;;;5034915;28;20446;-70
2021/12/20 05:03:49;;;;;;;0.50;0.10;;;7.30;1.00;;;;;;5034034;28;20472;-70
2021/12/20 05:06:17;;;;;;;0.50;0.10;;;7.30;1.00;;;;;;5034141;28;20555;-70
2021/12/20 05:08:50;;;;;;;0.50;0.10;;;7.30;1.00;;;;;;5034261;28;20449;-70
2021/12/20 05:11:20;;;;;;;0.80;0.40;;;7.30;1.00;;;;;;5034727;28;20443;-69
2021/12/20 05:13:48;;;;;;;0.50;0.20;;;7.30;1.00;;;;;;5034236;28;20529;-69
2021/12/20 05:16:16;;;;;;;0.50;0.10;;;7.20;1.00;;;;;;5033969;28;20559;-70
2021/12/20 05:18:43;;;;;;;0.50;0.10;;;7.20;1.00;;;;;;5033888;28;20448;-71
2021/12/20 05:21:11;;;;;;;0.50;0.10;;;7.20;1.00;;;;;;5034137;28;20452;-70
2021/12/20 05:23:39;;;;;;;0.50;0.20;;;7.20;1.00;;;;;;5034154;28;20456;-70
2021/12/20 05:26:08;;;;;;;7.17;1.07;;;7.20;1.00;;;;;;5033660;28;20477;-70
2021/12/20 05:28:36;;;;;;;0.50;0.10;;;7.20;1.00;;;;;;5033902;28;20460;-70
2021/12/20 05:31:05;;;;;;;0.50;0.10;;;7.20;1.00;;;;;;5030404;28;20455;-69
2021/12/20 05:33:34;;;;;;;0.50;0.10;;;7.10;1.00;;;;;;5033678;28;20473;-69
2021/12/20 05:36:02;;;;;;;0.50;0.10;;;7.00;1.00;;;;;;5033079;28;21006;-70
2021/12/20 05:38:47;;;;;;;0.50;0.10;;;7.00;1.00;;;;;;5033738;28;21036;-71
2021/12/20 05:41:16;;;;;;;0.50;0.17;;;7.00;1.00;;;;;;5033582;28;20448;-71
2021/12/20 05:43:45;;;;;;;14.30;0.63;;;7.00;1.00;;;;;;5033563;28;20446;-70
2021/12/20 05:46:13;;;;;;;0.50;0.20;;;7.00;1.00;;;;;;5033252;28;20470;-70
2021/12/20 05:48:41;;;;;;;0.50;0.17;;;7.00;1.00;;;;;;5033461;28;20449;-69
2021/12/20 05:51:09;;;;;;;0.60;0.30;;;7.00;1.00;;;;;;5033428;28;20447;-69
2021/12/20 05:53:37;;;;;;;0.50;0.20;;;6.90;1.00;;;;;;5033703;28;20452;-69
2021/12/20 05:56:05;;;;;;;8.83;0.50;;;6.90;1.00;;;;;;5032482;28;20999;-69
2021/12/20 05:58:34;;;;;;;0.50;0.10;;;6.90;1.00;;;;;;5033673;28;20458;-69
2021/12/20 06:01:02;;;;;;;0.50;0.10;;;6.80;1.00;;;;;;5033579;28;20811;-70
2021/12/20 06:03:30;;;;;;;0.50;0.10;;;6.80;1.00;;;;;;5033648;28;20450;-70
2021/12/20 06:05:58;;;;;;;0.50;0.20;;;6.70;1.00;;;;;;5032961;28;20870;-70
2021/12/20 06:08:26;;;;;;;0.50;0.10;;;6.70;1.00;;;;;;5034139;28;20465;-70
2021/12/20 06:10:54;;;;;;;0.50;0.10;;;6.60;1.00;;;;;;5035363;28;20513;-72
2021/12/20 06:13:22;;;;;;;0.50;0.10;;;6.50;1.00;;;;;;5035863;28;20446;-69
2021/12/20 06:15:51;;;;;;;0.50;0.10;;;6.50;1.00;;;;;;5034888;28;20494;-70
2021/12/20 06:18:19;;;;;;;0.50;0.20;;;6.50;1.00;;;;;;5033964;28;20970;-75
2021/12/20 06:20:47;;;;;;;0.50;0.10;;;6.40;1.00;;;;;;5033225;28;20890;-69
2021/12/20 06:23:14;;;;;;;0.50;0.10;;;6.40;1.00;;;;;;5032912;28;20452;-71
2021/12/20 06:25:42;;;;;;;0.60;0.40;;;6.40;1.00;;;;;;5035830;28;20485;-71
2021/12/20 06:28:10;;;;;;;0.50;0.10;;;6.30;1.00;;;;;;5033197;28;20441;-70
2021/12/20 06:30:39;;;;;;;0.83;0.70;;;6.30;1.00;;;;;;5032932;28;20827;-71
2021/12/20 06:33:08;;;;;;;0.50;0.10;;;6.30;1.00;;;;;;5032421;28;20789;-69
2021/12/20 06:35:36;;;;;;;2.60;1.63;;;6.30;1.00;;;;;;5033224;28;20524;-71
2021/12/20 06:38:06;;;;;;;0.50;0.10;;;6.20;1.00;;;;;;5032607;28;20999;-70
2021/12/20 06:40:35;;;;;;;0.50;0.10;;;6.20;1.00;;;;;;5032897;28;20445;-71
2021/12/20 06:43:04;;;;;;;0.50;0.10;;;6.10;1.00;;;;;;5032266;28;20533;-71
2021/12/20 06:45:33;;;;;;;0.50;0.10;;;6.10;1.00;;;;;;5032520;28;20502;-70
2021/12/20 06:48:01;;;;;;;0.50;0.10;;;6.10;1.00;;;;;;5035100;28;20445;-69
2021/12/20 06:50:30;;;;;;;2.70;2.53;;;6.00;1.00;;;;;;5035382;28;20461;-69
2021/12/20 06:52:59;;;;;;;0.60;0.60;;;6.00;1.00;;;;;;5033549;28;20445;-72
2021/12/20 06:55:27;;;;;;;0.50;0.10;;;6.00;1.00;;;;;;5032857;28;20489;-70
2021/12/20 06:57:55;;;;;;;0.50;0.10;;;5.90;1.00;;;;;;5033627;28;20453;-69
2021/12/20 07:00:23;;;;;;;0.50;0.10;;;5.80;1.00;;;;;;5034407;28;20448;-70
2021/12/20 07:02:51;;;;;;;0.50;0.10;;;5.80;1.00;;;;;;5034661;28;20970;-71
2021/12/20 07:05:23;;;;;;;1.17;0.93;;;5.70;1.00;;;;;;5033542;28;20540;-70
2021/12/20 07:07:53;;;;;;;0.50;0.10;;;5.70;1.00;;;;;;5034041;28;20472;-70
2021/12/20 07:10:21;;;;;;;0.50;0.10;;;5.60;1.00;;;;;;5030421;28;20465;-70
2021/12/20 07:12:50;;;;;;;0.50;0.20;;;5.60;1.00;;;;;;5022897;28;20540;-71
2021/12/20 07:15:19;;;;;;;1.33;1.23;;;5.60;1.00;;;;;;5028264;28;20505;-69
2021/12/20 07:17:46;;;;;;;0.60;0.47;;;5.50;1.00;;;;;;5032751;28;20445;-70
2021/12/20 07:20:14;;;;;;;0.50;0.10;;;5.50;1.00;;;;;;5032833;28;20449;-70
2021/12/20 07:22:42;;;;;;;0.70;0.37;;;5.50;1.00;;;;;;5033744;28;20823;-69
2021/12/20 07:25:12;;;;;;;16.53;1.47;;;5.40;1.00;;;;;;5032464;28;20808;-71
2021/12/20 07:27:44;;;;;;;0.50;0.20;;;5.30;1.00;;;;;;5027893;28;20472;-71
2021/12/20 07:30:12;;;;;;;1.60;1.07;;;5.30;1.00;;;;;;5024624;28;20450;-70
2021/12/20 07:32:40;;;;;;;0.50;0.10;;;5.30;1.00;;;;;;5031375;28;20849;-71
2021/12/20 07:35:09;;;;;;;5.93;1.70;;;5.20;1.00;;;;;;5032536;28;20459;-71
2021/12/20 07:37:37;;;;;;;0.60;0.30;;;5.20;1.00;;;;;;5032927;28;20484;-69
2021/12/20 07:40:07;;;;;;;0.50;0.10;;;5.10;1.00;;;;;;5032098;28;20448;-71
2021/12/20 07:42:36;;;;;;;2.70;2.30;;;5.10;1.00;;;;;;5032958;28;20451;-70
2021/12/20 07:45:05;;;;;;;0.50;0.10;;;5.00;1.00;;;;;;5033274;28;20451;-71
2021/12/20 07:47:46;;;;;;;0.50;0.10;;;5.00;1.00;;;;;;5034200;28;20441;-71
2021/12/20 07:50:14;;;;;;;0.77;0.50;;;5.00;1.00;;;;;;5032918;28;20476;-70
2021/12/20 07:52:42;;;;;;;0.60;0.33;;;5.00;1.00;;;;;;5033351;28;20447;-69
2021/12/20 07:55:11;;;;;;;0.50;0.20;;;5.00;1.00;;;;;;5034126;28;20499;-72
2021/12/20 07:57:41;;;;;;;1.53;1.03;;;4.90;1.00;;;;;;5032382;28;20535;-69
2021/12/20 08:00:11;;;;;;;0.60;0.60;;;4.90;1.00;;;;;;5031487;28;20798;-70
2021/12/20 08:02:40;;;;;;;0.50;0.10;;;4.90;1.00;;;;;;5031690;28;21042;-71
2021/12/20 08:05:08;;;;;;;0.60;0.30;;;4.90;1.00;;;;;;5030962;28;20823;-71
2021/12/20 08:07:36;;;;;;;0.50;0.20;;;4.90;1.00;;;;;;5031585;28;20441;-71
2021/12/20 08:10:05;;;;;;;0.50;0.10;;;4.90;1.00;;;;;;5031496;28;20450;-70
2021/12/20 08:12:33;;;;;;;1.80;0.53;;;4.80;1.00;;;;;;5031793;28;20447;-70
2021/12/20 08:15:03;;;;;;;0.50;0.20;;;4.80;1.00;;;;;;5030770;28;20443;-71
2021/12/20 08:17:31;;;;;;;0.70;0.50;;;4.70;1.00;;;;;;5031325;28;20570;-71
2021/12/20 08:19:59;;;;;;;1.07;0.50;;;4.70;1.00;;;;;;5031944;28;20950;-73
2021/12/20 08:22:27;;;;;;;0.50;0.10;;;4.70;1.00;;;;;;5032519;28;20452;-71
2021/12/20 08:24:55;;;;;;;0.87;0.87;;;4.80;1.00;;;;;;5031418;28;20544;-72
2021/12/20 08:27:23;;;;;;;0.50;0.10;;;5.40;1.00;;;;;;5032092;28;20956;-72
2021/12/20 08:29:51;;;;;;;1.63;0.70;;;4.80;1.00;;;;;;5031741;28;20444;-72
2021/12/20 08:32:23;;;;;;;14.50;1.97;;;4.80;1.00;;;;;;5032370;28;20454;-73
2021/12/20 08:34:53;;;;;;;0.50;0.10;;;4.90;1.00;;;;;;5033763;28;20440;-70
2021/12/20 08:37:21;;;;;;;2.97;1.80;;;4.90;1.00;;;;;;5031463;28;20480;-71
2021/12/20 08:39:49;;;;;;;1.23;0.67;;;5.00;1.00;;;;;;5033285;28;20457;-72
2021/12/20 08:42:17;;;;;;;0.50;0.20;;;5.00;1.00;;;;;;5034310;28;20499;-72
2021/12/20 08:44:45;;;;;;;0.50;0.10;;;5.10;1.00;;;;;;5033943;28;20451;-73
2021/12/20 08:47:13;;;;;;;0.50;0.10;;;5.10;1.00;;;;;;5034391;28;20465;-71
2021/12/20 08:49:43;;;;;;;0.50;0.20;;;5.10;1.00;;;;;;5035001;28;20459;-71
2021/12/20 08:52:11;;;;;;;0.50;0.10;;;5.10;1.00;;;;;;5034503;28;20886;-71
2021/12/20 08:54:40;;;;;;;0.50;0.10;;;5.10;1.00;;;;;;5034779;28;20470;-72
2021/12/20 08:57:08;;;;;;;0.50;0.10;;;5.10;1.00;;;;;;5034620;28;20936;-73
2021/12/20 08:59:36;;;;;;;1.47;1.07;;;5.20;1.00;;;;;;5034994;28;20448;-71
2021/12/20 09:02:07;;;;;;;1.07;0.97;;;5.20;1.00;;;;;;5034791;28;20449;-71
2021/12/20 09:04:36;;;;;;;0.50;0.20;;;5.20;1.00;;;;;;5034567;28;20844;-71
2021/12/20 09:07:14;;;;;;;0.50;0.10;;;5.20;1.00;;;;;;5035084;28;20526;-72
2021/12/20 09:09:44;;;;;;;0.90;0.47;;;5.30;1.00;;;;;;5035444;28;20922;-69
2021/12/20 09:12:12;;;;;;;0.50;0.10;;;5.30;1.00;;;;;;5035040;28;20444;-70
2021/12/20 09:14:40;;;;;;;0.50;0.20;;;5.30;1.00;;;;;;5030617;28;20458;-70
2021/12/20 09:17:09;;;;;;;0.60;0.40;;;5.30;1.00;;;;;;5032107;28;20909;-70
2021/12/20 09:19:37;;;;;;;1.13;1.03;;;5.30;1.00;;;;;;5032088;28;20445;-70
2021/12/20 09:22:07;;;;;;;0.50;0.30;;;5.30;1.00;;;;;;5034065;28;20456;-70
2021/12/20 09:24:35;;;;;;;0.50;0.10;;;5.30;1.00;;;;;;5033495;28;20821;-72
2021/12/20 09:27:05;;;;;;;0.70;0.60;;;5.40;1.00;;;;;;5033887;28;20476;-71
2021/12/20 09:29:33;;;;;;;0.50;0.10;;;5.40;1.00;;;;;;5034274;28;20451;-70
2021/12/20 09:32:02;;;;;;;1.17;0.53;;;5.40;1.00;;;;;;5034069;28;20444;-72
2021/12/20 09:34:30;;;;;;;0.57;0.30;;;5.50;1.00;;;;;;5033408;28;20478;-70
2021/12/20 09:37:04;;;;;;;0.60;0.40;;;5.40;1.00;;;;;;5033419;28;20491;-72
2021/12/20 09:39:34;;;;;;;1.00;0.87;;;5.50;1.00;;;;;;5033949;28;20562;-72
2021/12/20 09:42:03;;;;;;;0.50;0.10;;;5.50;1.00;;;;;;5035850;28;20476;-72
2021/12/20 09:44:31;;;;;;;0.50;0.10;;;5.50;1.00;;;;;;5036836;28;20461;-70
2021/12/20 09:47:02;;;;;;;0.50;0.10;;;5.60;1.00;;;;;;5032339;28;20473;-72
2021/12/20 09:49:31;;;;;;;0.50;0.10;;;5.50;1.00;;;;;;5032664;28;20476;-70
2021/12/20 09:51:59;;;;;;;2.47;0.50;;;5.60;1.00;;;;;;5034226;28;20442;-72
2021/12/20 09:54:29;;;;;;;1.00;0.70;;;5.60;1.00;;;;;;5033217;28;20441;-72
2021/12/20 09:57:02;;;;;;;0.60;0.30;;;5.60;1.00;;;;;;5031470;28;21000;-73
2021/12/20 09:59:31;;;;;;;1.37;1.13;;;5.70;1.00;;;;;;5032589;28;20445;-71
2021/12/20 10:01:59;;;;;;;0.80;0.57;;;5.80;1.00;;;;;;5033048;28;20456;-71
2021/12/20 10:04:27;;;;;;;5.33;3.37;;;5.80;1.00;;;;;;5033247;28;20451;-72
2021/12/20 10:06:58;;;;;;;10.93;1.53;;;5.80;1.00;;;;;;5033992;28;20497;-71
2021/12/20 10:09:27;;;;;;;0.50;0.20;;;5.80;1.00;;;;;;5034988;28;20455;-70
2021/12/20 10:12:14;;;;;;;0.50;0.10;;;5.80;1.00;;;;;;5037816;28;20452;-70
2021/12/20 10:14:57;;;;;;;0.50;0.10;;;5.90;1.00;;;;;;5033979;28;20532;-70
2021/12/20 10:17:26;;;;;;;0.50;0.10;;;5.90;1.00;;;;;;5032136;28;20489;-72
2021/12/20 10:19:55;;;;;;;0.50;0.10;;;5.90;1.00;;;;;;5032485;28;20446;-71
2021/12/20 10:22:28;;;;;;;0.50;0.10;;;5.90;1.00;;;;;;5032716;28;20452;-71
2021/12/20 10:24:57;;;;;;;0.50;0.10;;;6.00;1.00;;;;;;5031651;28;20960;-70
2021/12/20 10:27:31;;;;;;;0.50;0.20;;;6.00;1.00;;;;;;5032672;28;20433;-71
2021/12/20 10:30:00;;;;;;;1.67;1.57;;;5.90;1.00;;;;;;5032240;28;20457;-71
2021/12/20 10:32:39;;;;;;;0.50;0.10;;;5.90;1.00;;;;;;5031933;28;20445;-72
2021/12/20 10:35:29;;;;;;;0.50;0.10;;;6.00;1.00;;;;;;5031579;28;20446;-70
2021/12/20 10:38:07;;;;;;;0.50;0.10;;;6.00;1.00;;;;;;5032185;28;20481;-71
2021/12/20 10:40:46;;;;;;;1.07;0.70;;;6.10;1.00;;;;;;5031941;28;20445;-70
2021/12/20 10:43:21;;;;;;;3.80;1.80;;;6.20;1.00;;;;;;5031948;28;20453;-71
2021/12/20 10:45:54;;;;;;;0.50;0.20;;;6.20;1.00;;;;;;5033077;28;20477;-72
2021/12/20 10:48:43;;;;;;;2.03;1.70;;;6.10;1.00;;;;;;5032404;28;20456;-72
2021/12/20 10:51:24;;;;;;;2.23;1.80;;;6.10;1.00;;;;;;5031656;28;20440;-73
2021/12/20 10:53:58;;;;;;;0.50;0.10;;;6.10;1.00;;;;;;5031466;28;20951;-71
2021/12/20 10:56:28;;;;;;;0.50;0.10;;;6.10;1.00;;;;;;5031386;28;20476;-70
2021/12/20 10:58:59;;;;;;;1.83;0.80;;;6.10;1.00;;;;;;5031028;28;20567;-73
2021/12/20 11:04:17;;;;;;;2.40;2.17;;;6.10;1.00;;;;;;4995548;28;20484;-73
2021/12/20 11:07:02;;;;;;;1.07;0.93;;;6.10;1.00;;;;;;5018363;28;20951;-72
2021/12/20 11:09:32;;;;;;;0.50;0.10;;;6.10;1.00;;;;;;5026123;28;20435;-71
2021/12/20 11:12:02;;;;;;;0.60;0.20;;;6.10;1.00;;;;;;5031771;28;20445;-74
2021/12/20 11:14:33;;;;;;;0.50;0.10;;;6.10;1.00;;;;;;5031314;28;20446;-72
2021/12/20 11:17:03;;;;;;;0.50;0.10;;;6.10;1.00;;;;;;5028185;28;20551;-73
2021/12/20 11:19:33;;;;;;;0.50;0.10;;;6.20;1.00;;;;;;5030639;28;20460;-72
2021/12/20 11:22:07;;;;;;;0.70;0.30;;;6.30;1.00;;;;;;5030258;28;20469;-74
2021/12/20 11:24:44;;;;;;;0.50;0.10;;;6.30;1.00;;;;;;5027356;28;20457;-72
2021/12/20 11:27:15;;;;;;;0.50;0.10;;;6.30;1.00;;;;;;5029280;28;20488;-72
2021/12/20 11:29:47;;;;;;;0.50;0.10;;;6.30;1.00;;;;;;5029645;28;20457;-71
2021/12/20 11:32:16;;;;;;;0.50;0.10;;;6.30;1.00;;;;;;5023230;28;20933;-71
2021/12/20 11:34:44;;;;;;;0.50;0.10;;;6.40;1.00;;;;;;5031525;28;20435;-72
2021/12/20 11:37:13;;;;;;;0.50;0.10;;;6.40;1.00;;;;;;5029874;28;20472;-71
2021/12/20 11:39:42;;;;;;;0.50;0.10;;;6.50;1.00;;;;;;5031547;28;20469;-72
2021/12/20 11:42:12;;;;;;;0.50;0.10;;;6.60;1.00;;;;;;5020103;28;20701;-73
2021/12/20 11:44:41;;;;;;;0.80;0.80;;;6.60;1.00;;;;;;5029104;28;20469;-73
2021/12/20 11:47:19;;;;;;;0.50;0.27;;;6.60;1.00;;;;;;5030506;28;20465;-73
2021/12/20 11:49:57;;;;;;;0.50;0.10;;;6.60;1.00;;;;;;5031815;28;20781;-71
2021/12/20 11:52:29;;;;;;;1.33;0.37;;;6.60;1.00;;;;;;5031466;28;20436;-72
2021/12/20 11:54:57;;;;;;;0.50;0.20;;;6.50;1.00;;;;;;5031673;28;20438;-72
2021/12/20 11:57:41;;;;;;;0.50;0.10;;;6.50;1.00;;;;;;5032191;28;20813;-71
2021/12/20 12:00:27;;;;;;;0.50;0.10;;;6.50;1.00;;;;;;5032236;28;20449;-72
2021/12/20 12:03:00;;;;;;;0.70;0.10;;;6.50;1.00;;;;;;5032036;28;20441;-74
2021/12/20 12:05:32;;;;;;;0.50;0.10;;;6.50;1.00;;;;;;5032226;28;20513;-73
2021/12/20 12:08:31;;;;;;;0.50;0.10;;;6.60;1.00;;;;;;5033753;28;20438;-73
2021/12/20 12:11:20;;;;;;;0.50;0.10;;;6.60;1.00;;;;;;5031889;28;20442;-72
2021/12/20 12:14:18;;;;;;;0.80;0.40;;;6.70;1.00;;;;;;5031562;28;20468;-72
2021/12/20 12:17:00;;;;;;;2.80;1.00;;;6.80;1.00;;;;;;5037055;28;20460;-80
2021/12/20 12:19:48;;;;;;;0.70;0.40;;;6.70;1.00;;;;;;5027705;28;20473;-72
2021/12/20 12:22:37;;;;;;;5.37;2.60;;;6.10;1.00;;;;;;5027752;28;20439;-74
2021/12/20 12:25:08;;;;;;;0.50;0.10;;;6.60;1.00;;;;;;5034558;28;20448;-72
2021/12/20 12:27:38;;;;;;;0.50;0.10;;;6.60;1.00;;;;;;5035799;28;20448;-74
2021/12/20 12:30:30;;;;;;;0.60;0.40;;;6.60;1.00;;;;;;5035921;28;20445;-73
2021/12/20 12:33:17;;;;;;;0.70;0.43;;;6.60;1.00;;;;;;5035785;28;20441;-73
2021/12/20 12:35:49;;;;;;;0.80;0.60;;;6.60;99.90;;;;;;5034436;28;20516;-72
2021/12/20 12:38:19;;;;;;;0.50;0.10;;;6.60;99.90;;;;;;5034646;28;20568;-73
2021/12/20 12:40:51;;;;;;;0.50;0.10;;;6.60;99.90;;;;;;5034313;28;20476;-73
2021/12/20 12:43:26;;;;;;;0.50;0.10;;;6.60;99.90;;;;;;5034697;28;20525;-71
2021/12/20 12:45:58;;;;;;;0.60;0.10;;;6.60;99.90;;;;;;5034933;28;20522;-73
2021/12/20 12:48:38;;;;;;;0.50;0.10;;;6.60;99.90;;;;;;5034253;28;20445;-73
2021/12/20 12:51:27;;;;;;;0.60;0.40;;;6.70;1.00;;;;;;5033806;28;20935;-73
2021/12/20 12:53:56;;;;;;;0.50;0.10;;;6.80;99.90;;;;;;5033476;28;20824;-74
2021/12/20 12:56:31;;;;;;;3.43;1.70;;;6.90;99.90;;;;;;5034179;28;20988;-72
2021/12/20 12:59:22;;;;;;;0.50;0.20;;;6.90;99.90;;;;;;5034822;28;20798;-72
2021/12/20 13:01:52;;;;;;;0.50;0.10;;;6.90;1.00;;;;;;5035538;28;20446;-72
2021/12/20 13:04:45;;;;;;;1.90;0.67;;;6.90;1.00;;;;;;5033856;28;20827;-73
2021/12/20 13:07:17;;;;;;;0.70;0.30;;;6.90;1.00;;;;;;5029242;28;20477;-71
2021/12/20 13:09:46;;;;;;;0.50;0.20;;;6.90;1.00;;;;;;5030458;28;20904;-71
2021/12/20 13:12:20;;;;;;;0.50;0.10;;;6.90;1.00;;;;;;5015157;28;20545;-72
2021/12/20 13:14:52;;;;;;;0.50;0.10;;;6.80;1.00;;;;;;5015210;28;20454;-72
2021/12/20 13:17:29;;;;;;;0.50;0.10;;;6.80;1.00;;;;;;5014990;28;20452;-73
2021/12/20 13:20:09;;;;;;;0.60;0.37;;;6.80;1.00;;;;;;5014859;28;20481;-72
2021/12/20 13:22:38;;;;;;;0.50;0.10;;;6.80;1.00;;;;;;5047473;28;20506;-73
2021/12/20 13:25:06;;;;;;;0.70;0.50;;;6.80;1.00;;;;;;5035226;28;20556;-73
2021/12/20 13:27:35;;;;;;;0.77;0.47;;;6.80;1.00;;;;;;5036174;28;20870;-72
2021/12/20 13:30:03;;;;;;;0.50;0.10;;;6.80;1.00;;;;;;5034800;28;20445;-73
2021/12/20 13:32:31;;;;;;;0.50;0.20;;;6.80;1.00;;;;;;5035298;28;20452;-72
2021/12/20 13:35:17;;;;;;;0.50;0.10;;;6.70;1.00;;;;;;5035459;28;20454;-73
2021/12/20 13:37:47;;;;;;;0.50;0.10;;;6.70;1.00;;;;;;5041979;28;20516;-72